Time;durP1;ratioP1;P1;durP2;ratioP2;P2;SDS_P1;SDS_P2;PMS_P1;PMS_P2;Temp;Humidity;BMP_temperature;BMP_pressure;BME280_temperature;BME280_humidity;BME280_pressure;Samples;Min_cycle;Max_cycle;Signal;HPM_P1;HPM_P2
2021/03/05 00:00:37;;;;;;;16.67;8.57;;;;;;;4.65;67.85;102362.09;4965912;28;20094;-75
2021/03/05 00:03:04;;;;;;;17.30;8.98;;;;;;;4.61;67.75;102357.13;4928508;28;20077;-75
2021/03/05 00:05:37;;;;;;;19.17;9.13;;;;;;;4.60;68.15;102360.63;4947337;28;20499;-75
2021/03/05 00:08:04;;;;;;;21.60;8.85;;;;;;;4.58;68.28;102367.63;4965912;28;20613;-75
2021/03/05 00:10:32;;;;;;;16.48;9.63;;;;;;;4.56;68.15;102373.72;4959839;28;20115;-73
2021/03/05 00:12:58;;;;;;;18.60;9.50;;;;;;;4.54;68.29;102366.94;4964083;28;20054;-74
2021/03/05 00:15:29;;;;;;;18.95;9.30;;;;;;;4.54;68.33;102374.72;4957032;28;20162;-75
2021/03/05 00:17:56;;;;;;;18.33;9.07;;;;;;;4.51;68.38;102373.13;4961985;28;20059;-75
2021/03/05 00:20:25;;;;;;;18.67;9.32;;;;;;;4.53;68.25;102380.84;4943251;28;20090;-75
2021/03/05 00:22:51;;;;;;;14.00;8.43;;;;;;;4.49;68.22;102379.31;4948509;28;20890;-75
2021/03/05 00:25:17;;;;;;;16.60;8.70;;;;;;;4.53;68.07;102386.88;4949775;28;20161;-75
2021/03/05 00:27:43;;;;;;;17.70;8.95;;;;;;;4.52;68.05;102386.94;4946481;28;20090;-75
2021/03/05 00:30:11;;;;;;;19.60;9.98;;;;;;;4.49;68.02;102398.34;4939351;28;20673;-75
2021/03/05 00:32:37;;;;;;;18.92;9.93;;;;;;;4.43;68.34;102393.41;4950015;28;20149;-75
2021/03/05 00:35:08;;;;;;;18.38;9.70;;;;;;;4.41;68.33;102391.78;4948645;28;20055;-74
2021/03/05 00:37:34;;;;;;;16.85;8.70;;;;;;;4.39;68.13;102402.25;4940369;28;20159;-74
2021/03/05 00:40:01;;;;;;;18.15;9.48;;;;;;;4.40;68.26;102401.31;4964894;28;20485;-76
2021/03/05 00:42:27;;;;;;;18.25;9.50;;;;;;;4.36;68.47;102399.78;4956062;28;20473;-74
2021/03/05 00:44:53;;;;;;;19.35;9.45;;;;;;;4.35;68.21;102396.34;4947881;28;20670;-75
2021/03/05 00:47:19;;;;;;;18.88;10.48;;;;;;;4.39;68.45;102406.59;4968682;28;20109;-75
2021/03/05 00:49:45;;;;;;;15.00;8.77;;;;;;;4.39;68.16;102409.19;4968200;28;20134;-76
2021/03/05 00:52:11;;;;;;;15.20;8.65;;;;;;;4.38;68.04;102402.31;4965078;28;20122;-75
2021/03/05 00:55:07;;;;;;;19.50;9.40;;;;;;;4.42;67.81;102407.28;4940896;29;20615;-76
2021/03/05 00:57:34;;;;;;;14.60;9.18;;;;;;;4.40;67.92;102411.72;4952722;28;20067;-74
2021/03/05 01:00:01;;;;;;;15.88;9.25;;;;;;;4.35;67.53;102411.94;4959920;28;20054;-75
2021/03/05 01:02:27;;;;;;;17.67;8.27;;;;;;;4.37;67.34;102419.63;4950614;28;20055;-75
2021/03/05 01:04:54;;;;;;;16.00;8.68;;;;;;;4.25;67.12;102409.78;4952852;28;20054;-75
2021/03/05 01:07:20;;;;;;;11.82;7.68;;;;;;;4.25;66.91;102418.41;4962551;28;20110;-76
2021/03/05 01:09:46;;;;;;;14.73;8.27;;;;;;;4.11;66.76;102413.81;4959595;28;20081;-75
2021/03/05 01:12:41;;;;;;;16.23;8.68;;;;;;;4.08;67.02;102432.13;4963239;28;20045;-75
2021/03/05 01:15:08;;;;;;;12.50;7.22;;;;;;;3.99;66.88;102419.53;4940240;28;20070;-75
2021/03/05 01:17:34;;;;;;;13.70;7.72;;;;;;;3.89;67.14;102433.81;4950110;28;20090;-74
2021/03/05 01:20:07;;;;;;;15.95;7.53;;;;;;;3.82;67.21;102430.59;4968560;28;20488;-75
2021/03/05 01:22:33;;;;;;;15.40;7.30;;;;;;;3.81;66.92;102435.88;4961477;28;20620;-75
2021/03/05 01:24:59;;;;;;;17.33;8.65;;;;;;;3.71;67.03;102436.25;4964656;28;20062;-75
2021/03/05 01:27:25;;;;;;;13.18;7.55;;;;;;;3.72;67.35;102450.06;4955704;28;20145;-75
2021/03/05 01:29:51;;;;;;;11.52;7.75;;;;;;;3.67;67.47;102450.25;4950180;28;20548;-76
2021/03/05 01:32:17;;;;;;;12.45;7.57;;;;;;;3.69;67.50;102445.00;4939923;28;20055;-76
2021/03/05 01:34:43;;;;;;;12.60;7.72;;;;;;;3.64;67.26;102455.56;4955212;28;20169;-76
2021/03/05 01:37:10;;;;;;;13.73;8.02;;;;;;;3.64;67.35;102452.13;4962119;28;20062;-76
2021/03/05 01:39:35;;;;;;;14.15;8.27;;;;;;;3.56;67.65;102447.25;4945355;28;20106;-75
2021/03/05 01:42:02;;;;;;;13.13;7.75;;;;;;;3.53;67.79;102447.38;4947196;28;20262;-75
2021/03/05 01:44:28;;;;;;;13.95;8.38;;;;;;;3.49;67.58;102453.56;4961958;28;20094;-75
2021/03/05 01:46:54;;;;;;;13.60;7.68;;;;;;;3.45;67.88;102452.00;4974759;28;20058;-75
2021/03/05 01:49:21;;;;;;;17.92;7.55;;;;;;;3.40;67.98;102453.94;4960467;28;20061;-75
2021/03/05 01:51:47;;;;;;;14.27;8.00;;;;;;;3.34;68.17;102455.88;4964748;28;20129;-75
2021/03/05 01:54:13;;;;;;;13.60;7.68;;;;;;;3.36;68.35;102463.59;4955034;28;20059;-75
2021/03/05 01:56:42;;;;;;;12.57;7.03;;;;;;;3.32;68.28;102465.47;4971426;28;20089;-75
2021/03/05 01:59:11;;;;;;;13.90;8.00;;;;;;;3.26;68.12;102462.28;4968648;28;20054;-75
2021/03/05 02:01:38;;;;;;;13.27;7.63;;;;;;;3.19;68.12;102472.00;4960735;28;20094;-75
2021/03/05 02:04:12;;;;;;;15.10;8.00;;;;;;;3.12;68.49;102465.38;4946083;28;20059;-75
2021/03/05 02:06:58;;;;;;;13.93;7.20;;;;;;;3.04;68.94;102478.63;4950485;28;20248;-75
2021/03/05 02:09:24;;;;;;;16.10;8.00;;;;;;;3.03;69.17;102482.13;4964352;28;20085;-75
2021/03/05 02:11:50;;;;;;;14.73;7.70;;;;;;;3.02;69.18;102488.22;4960067;28;20086;-75
2021/03/05 02:14:17;;;;;;;13.10;7.57;;;;;;;2.94;69.01;102479.84;4954025;28;20069;-75
2021/03/05 02:17:10;;;;;;;16.50;8.40;;;;;;;2.90;69.50;102479.16;4942533;28;20070;-74
2021/03/05 02:20:03;;;;;;;16.73;9.15;;;;;;;2.93;69.07;102501.50;4962913;28;20062;-75
2021/03/05 02:22:41;;;;;;;19.00;8.43;;;;;;;2.89;69.58;102503.34;4955601;28;20114;-75
2021/03/05 02:25:36;;;;;;;13.93;9.15;;;;;;;2.82;70.41;102501.03;4955812;28;20059;-75
2021/03/05 02:28:49;;;;;;;13.68;7.90;;;;;;;2.81;70.18;102499.38;4942825;28;20050;-74
2021/03/05 02:31:21;;;;;;;18.33;8.80;;;;;;;2.76;70.71;102507.28;4936080;28;20055;-75
2021/03/05 02:33:58;;;;;;;16.83;8.85;;;;;;;2.68;70.40;102499.78;4953491;28;20059;-75
2021/03/05 02:36:42;;;;;;;16.67;9.20;;;;;;;2.67;70.74;102508.47;4958359;28;20066;-76
2021/03/05 02:39:15;;;;;;;19.55;9.85;;;;;;;2.63;70.75;102513.81;4953107;28;20426;-75
2021/03/05 02:41:45;;;;;;;18.73;8.70;;;;;;;2.54;70.95;102509.78;4966260;28;20426;-75
2021/03/05 02:44:18;;;;;;;17.15;8.45;;;;;;;2.52;71.02;102514.19;4940315;28;20109;-75
2021/03/05 02:46:44;;;;;;;20.00;9.32;;;;;;;2.41;71.66;102518.88;4966211;28;20779;-75
2021/03/05 02:49:15;;;;;;;17.27;8.85;;;;;;;2.36;71.71;102519.88;4961416;28;20051;-74
2021/03/05 02:51:43;;;;;;;15.25;8.65;;;;;;;2.31;71.70;102521.78;4965864;28;20081;-75
2021/03/05 02:54:11;;;;;;;18.83;9.32;;;;;;;2.35;72.04;102535.47;4966401;28;20130;-74
2021/03/05 02:56:38;;;;;;;19.70;9.30;;;;;;;2.30;71.75;102522.66;4940572;28;20124;-75
2021/03/05 02:59:07;;;;;;;19.83;9.15;;;;;;;2.27;71.73;102527.94;4943844;28;20050;-75
2021/03/05 03:01:34;;;;;;;22.98;9.80;;;;;;;2.27;71.93;102543.47;4955903;28;20648;-75
2021/03/05 03:04:04;;;;;;;19.83;9.48;;;;;;;2.27;72.29;102547.81;4948363;28;20057;-75
2021/03/05 03:06:32;;;;;;;15.68;8.30;;;;;;;2.28;72.21;102534.81;4951091;28;20621;-77
2021/03/05 03:09:02;;;;;;;18.15;8.82;;;;;;;2.18;72.04;102539.47;4962895;28;20058;-76
2021/03/05 03:11:28;;;;;;;23.63;9.60;;;;;;;2.24;71.59;102550.53;4933452;28;20149;-76
2021/03/05 03:13:55;;;;;;;21.08;8.55;;;;;;;2.14;72.00;102535.28;4944217;28;20796;-75
2021/03/05 03:16:22;;;;;;;18.33;8.25;;;;;;;2.09;71.81;102533.72;4960789;28;20134;-75
2021/03/05 03:18:49;;;;;;;16.92;8.20;;;;;;;2.16;72.13;102556.78;4951195;28;20066;-75
2021/03/05 03:21:15;;;;;;;17.98;9.23;;;;;;;2.12;71.33;102562.13;4966163;28;20055;-75
2021/03/05 03:23:42;;;;;;;17.88;8.38;;;;;;;2.09;71.45;102557.88;4958377;28;20093;-75
2021/03/05 03:26:08;;;;;;;17.05;8.10;;;;;;;2.04;71.66;102561.50;4940327;28;20263;-76
2021/03/05 03:28:35;;;;;;;16.05;7.85;;;;;;;1.96;71.37;102560.00;4923034;28;20190;-76
2021/03/05 03:31:09;;;;;;;19.55;8.38;;;;;;;2.02;71.13;102569.34;4956617;28;20063;-75
2021/03/05 03:33:35;;;;;;;16.45;8.48;;;;;;;1.96;71.24;102564.31;4943466;28;20475;-75
2021/03/05 03:36:03;;;;;;;14.98;8.15;;;;;;;1.93;71.08;102567.84;4935048;29;20487;-76
2021/03/05 03:38:31;;;;;;;22.17;8.27;;;;;;;1.92;71.06;102579.13;4933043;28;20082;-76
2021/03/05 03:40:57;;;;;;;17.38;8.30;;;;;;;1.85;71.30;102580.19;4946400;28;20146;-76
2021/03/05 03:43:24;;;;;;;15.43;8.05;;;;;;;1.87;71.11;102581.00;4943175;28;20150;-76
2021/03/05 03:45:50;;;;;;;20.17;7.78;;;;;;;1.77;71.15;102575.25;4949230;28;20166;-76
2021/03/05 03:48:18;;;;;;;12.93;6.63;;;;;;;1.71;70.90;102570.25;4955789;28;20062;-75
2021/03/05 03:51:00;;;;;;;16.25;9.13;;;;;;;1.74;70.58;102584.84;4929605;28;20063;-75
2021/03/05 03:53:29;;;;;;;17.10;7.82;;;;;;;1.68;70.44;102577.25;4960883;28;20114;-74
2021/03/05 03:55:55;;;;;;;;;;;;;;;1.68;70.84;102579.84;4944964;28;20059;-75
2021/03/05 03:58:24;;;;;;;14.65;7.22;;;;;;;1.66;70.65;102589.41;4970085;28;19926;-75
2021/03/05 04:00:55;;;;;;;13.18;7.22;;;;;;;1.59;70.63;102583.56;4945749;28;20063;-75
2021/03/05 04:03:29;;;;;;;14.43;7.45;;;;;;;1.58;70.45;102580.13;4942853;28;20059;-74
2021/03/05 04:05:57;;;;;;;15.45;7.75;;;;;;;1.55;70.30;102590.56;4964369;28;20102;-75
2021/03/05 04:08:34;;;;;;;15.75;7.47;;;;;;;1.57;70.40;102600.88;4952364;28;20066;-76
2021/03/05 04:11:01;;;;;;;15.48;7.15;;;;;;;1.56;70.05;102601.75;4963806;28;20059;-75
2021/03/05 04:13:28;;;;;;;12.27;6.72;;;;;;;1.53;70.16;102600.13;4961464;28;20063;-75
2021/03/05 04:15:54;;;;;;;14.32;6.88;;;;;;;1.49;69.82;102601.09;4938132;28;20315;-75
2021/03/05 04:18:20;;;;;;;13.48;6.95;;;;;;;1.44;69.86;102610.72;4963284;28;20710;-76
2021/03/05 04:20:50;;;;;;;13.55;6.40;;;;;;;1.38;69.74;102597.97;4964593;28;20434;-76
2021/03/05 04:23:17;;;;;;;18.10;6.90;;;;;;;1.36;69.58;102610.94;4964109;28;20101;-76
2021/03/05 04:25:43;;;;;;;12.88;6.50;;;;;;;1.42;70.11;102624.59;4962664;28;20550;-75
2021/03/05 04:28:09;;;;;;;16.23;7.07;;;;;;;1.38;69.88;102629.00;4968456;28;20069;-76
2021/03/05 04:30:35;;;;;;;13.63;5.93;;;;;;;1.34;69.76;102627.38;4944864;28;20438;-78
2021/03/05 04:33:02;;;;;;;11.73;6.15;;;;;;;1.29;69.37;102629.22;4967990;28;20767;-76
2021/03/05 04:35:28;;;;;;;12.55;5.97;;;;;;;1.28;69.50;102628.41;4941233;28;20059;-76
2021/03/05 04:37:54;;;;;;;10.98;5.82;;;;;;;1.28;69.05;102635.31;4954223;28;20065;-76
2021/03/05 04:40:20;;;;;;;13.93;6.65;;;;;;;1.25;69.02;102631.03;4962314;28;20141;-76
2021/03/05 04:42:46;;;;;;;14.48;6.07;;;;;;;1.26;69.47;102640.53;4965815;28;20062;-76
2021/03/05 04:45:13;;;;;;;14.43;5.85;;;;;;;1.23;69.33;102638.00;4950597;28;20054;-77
2021/03/05 04:47:39;;;;;;;11.40;6.10;;;;;;;1.19;69.38;102634.66;4943882;28;20063;-75
2021/03/05 04:50:06;;;;;;;12.55;6.35;;;;;;;1.15;69.43;102643.38;4944577;28;20085;-76
2021/03/05 04:52:32;;;;;;;11.38;6.68;;;;;;;1.14;69.52;102646.03;4959430;28;20063;-75
2021/03/05 04:54:58;;;;;;;14.60;7.30;;;;;;;1.11;70.23;102640.91;4967705;28;20084;-77
2021/03/05 04:57:24;;;;;;;14.73;7.28;;;;;;;1.06;69.79;102640.19;4946285;28;20455;-76
2021/03/05 04:59:51;;;;;;;15.73;7.00;;;;;;;1.09;69.79;102659.03;4968546;28;20157;-77
2021/03/05 05:02:17;;;;;;;13.40;7.10;;;;;;;1.08;70.12;102657.38;4948253;28;20082;-76
2021/03/05 05:04:43;;;;;;;20.20;7.55;;;;;;;0.92;70.39;102636.25;4958775;28;20090;-75
2021/03/05 05:07:09;;;;;;;12.65;6.82;;;;;;;1.07;69.73;102657.41;4948622;28;20055;-76
2021/03/05 05:09:35;;;;;;;13.82;7.40;;;;;;;1.06;69.84;102661.72;4960727;28;20058;-76
2021/03/05 05:12:01;;;;;;;10.55;5.15;;;;;;;1.05;70.16;102660.03;4966903;28;20061;-76
2021/03/05 05:14:27;;;;;;;11.48;6.25;;;;;;;0.99;69.47;102661.03;4947840;28;20137;-75
2021/03/05 05:16:53;;;;;;;11.35;5.85;;;;;;;0.99;69.84;102671.34;4945898;28;20047;-75
2021/03/05 05:19:19;;;;;;;9.75;5.63;;;;;;;0.97;69.39;102678.31;4940471;28;20137;-76
2021/03/05 05:21:46;;;;;;;13.07;6.10;;;;;;;0.82;69.06;102662.34;4966520;28;20077;-76
2021/03/05 05:24:12;;;;;;;14.27;6.68;;;;;;;0.90;69.06;102683.66;4964439;28;20144;-76
2021/03/05 05:26:38;;;;;;;16.55;5.72;;;;;;;0.91;69.07;102680.19;4961868;28;20470;-76
2021/03/05 05:29:04;;;;;;;15.60;5.80;;;;;;;0.89;69.38;102679.41;4965573;28;20130;-77
2021/03/05 05:31:30;;;;;;;10.38;5.22;;;;;;;0.84;68.40;102679.50;4955814;28;20100;-77
2021/03/05 05:33:57;;;;;;;12.10;6.00;;;;;;;0.82;68.75;102676.09;4961708;28;20110;-77
2021/03/05 05:36:23;;;;;;;11.32;5.43;;;;;;;0.81;68.98;102673.56;4941802;28;20059;-76
2021/03/05 05:38:50;;;;;;;15.73;6.38;;;;;;;0.79;68.78;102683.94;4963505;28;20063;-76
2021/03/05 05:41:16;;;;;;;13.00;5.68;;;;;;;0.84;69.32;102691.56;4943673;28;20069;-76
2021/03/05 05:43:42;;;;;;;14.82;5.60;;;;;;;0.84;68.95;102704.47;4952752;28;20141;-78
2021/03/05 05:46:10;;;;;;;11.73;5.90;;;;;;;0.80;68.68;102698.53;4967520;28;20089;-77
2021/03/05 05:48:43;;;;;;;12.32;5.93;;;;;;;0.85;68.46;102707.03;4954555;28;20095;-76
2021/03/05 05:51:35;;;;;;;;;;;;;;;0.86;68.43;102713.88;4954887;28;20058;-76
2021/03/05 05:54:10;;;;;;;12.93;6.05;;;;;;;0.84;68.41;102704.47;4955662;28;19937;-76
2021/03/05 05:56:40;;;;;;;13.95;5.45;;;;;;;0.85;68.54;102711.38;4964620;28;20065;-74
2021/03/05 05:59:07;;;;;;;15.27;5.82;;;;;;;0.79;68.27;102707.19;4957295;28;20062;-74
2021/03/05 06:01:34;;;;;;;11.75;5.95;;;;;;;0.78;68.06;102713.22;4960576;28;20070;-76
2021/03/05 06:04:02;;;;;;;11.82;5.88;;;;;;;0.75;67.95;102718.50;4959516;28;20063;-75
2021/03/05 06:06:29;;;;;;;12.45;6.07;;;;;;;0.74;68.13;102727.94;4948255;28;20149;-75
2021/03/05 06:09:00;;;;;;;11.30;5.03;;;;;;;0.75;68.51;102734.81;4959512;28;21039;-74
2021/03/05 06:11:40;;;;;;;12.15;5.53;;;;;;;0.74;68.67;102740.88;4967372;28;20454;-76
2021/03/05 06:14:09;;;;;;;11.68;5.75;;;;;;;0.71;68.45;102740.94;4942300;28;20055;-75
2021/03/05 06:16:50;;;;;;;11.20;5.45;;;;;;;0.71;67.87;102747.84;4959069;28;20055;-74
2021/03/05 06:19:18;;;;;;;10.23;5.03;;;;;;;0.70;67.99;102753.91;4965781;28;20062;-75
2021/03/05 06:21:44;;;;;;;10.13;4.88;;;;;;;0.64;68.42;102736.81;4958977;28;20133;-74
2021/03/05 06:24:10;;;;;;;11.95;5.50;;;;;;;0.65;68.09;102747.97;4965746;28;20149;-75
2021/03/05 06:26:58;;;;;;;11.00;5.22;;;;;;;0.69;68.06;102753.06;4956273;28;20054;-74
2021/03/05 06:29:39;;;;;;;14.18;5.03;;;;;;;0.69;68.13;102759.97;4961963;28;20059;-75
2021/03/05 06:32:07;;;;;;;9.55;4.63;;;;;;;0.58;67.82;102752.44;4958766;28;20110;-74
2021/03/05 06:34:47;;;;;;;9.50;5.00;;;;;;;0.70;67.70;102778.00;4948680;28;20066;-74
2021/03/05 06:37:14;;;;;;;7.88;4.18;;;;;;;0.64;67.50;102775.53;4958779;28;20058;-74
2021/03/05 06:39:40;;;;;;;12.25;5.63;;;;;;;0.66;67.51;102775.50;4964698;28;20109;-74
2021/03/05 06:42:11;;;;;;;10.45;4.35;;;;;;;0.67;67.30;102784.97;4954328;28;20065;-75
2021/03/05 06:44:43;;;;;;;15.63;7.13;;;;;;;0.65;67.18;102786.72;4964948;28;20125;-75
2021/03/05 06:47:17;;;;;;;12.70;5.25;;;;;;;0.62;67.75;102789.38;4950222;28;20142;-75
2021/03/05 06:49:46;;;;;;;11.52;4.30;;;;;;;0.69;66.96;102801.28;4939442;28;20059;-75
2021/03/05 06:52:13;;;;;;;;;;;;;;;0.71;67.07;102810.69;4955705;28;20062;-75
2021/03/05 06:54:41;;;;;;;8.32;3.80;;;;;;;0.70;66.79;102811.56;4944782;28;19926;-75
2021/03/05 06:57:08;;;;;;;9.90;3.40;;;;;;;0.74;66.94;102815.78;4958412;28;20047;-75
2021/03/05 06:59:36;;;;;;;11.60;4.80;;;;;;;0.75;66.99;102809.75;4959702;28;20403;-74
2021/03/05 07:02:03;;;;;;;13.75;4.07;;;;;;;0.72;66.59;102814.13;4945747;28;20582;-75
2021/03/05 07:04:35;;;;;;;10.23;4.63;;;;;;;0.73;66.86;102815.84;4958621;28;20062;-76
2021/03/05 07:07:05;;;;;;;9.65;4.32;;;;;;;0.77;66.77;102822.63;4963179;28;20509;-76
2021/03/05 07:09:40;;;;;;;12.02;4.13;;;;;;;0.71;66.67;102821.03;4963131;28;20068;-76
2021/03/05 07:12:17;;;;;;;9.13;3.88;;;;;;;0.75;66.42;102825.25;4961454;28;20091;-76
2021/03/05 07:14:47;;;;;;;9.90;3.58;;;;;;;0.74;66.32;102826.09;4966147;28;20558;-76
2021/03/05 07:17:15;;;;;;;5.85;2.90;;;;;;;0.82;65.76;102833.69;4942014;28;20675;-75
2021/03/05 07:19:42;;;;;;;7.03;3.28;;;;;;;0.78;65.88;102834.66;4956969;28;20722;-75
2021/03/05 07:22:09;;;;;;;9.55;3.38;;;;;;;0.88;66.02;102849.09;4953897;28;20153;-75
2021/03/05 07:24:40;;;;;;;7.30;3.60;;;;;;;0.91;65.85;102845.56;4943811;28;20058;-75
2021/03/05 07:27:08;;;;;;;8.07;3.20;;;;;;;0.91;65.62;102854.16;4954877;28;20336;-75
2021/03/05 07:29:45;;;;;;;7.77;2.93;;;;;;;0.83;65.66;102826.81;4958849;28;20134;-75
2021/03/05 07:32:17;;;;;;;8.65;3.10;;;;;;;1.01;65.54;102851.38;4936378;28;20063;-75
2021/03/05 07:35:00;;;;;;;8.70;3.55;;;;;;;1.04;65.46;102857.34;4960614;28;20122;-77
2021/03/05 07:37:32;;;;;;;12.23;4.45;;;;;;;1.06;65.60;102862.47;4952748;28;20050;-75
2021/03/05 07:40:13;;;;;;;9.90;3.65;;;;;;;1.06;65.25;102862.47;4963902;28;20058;-76
2021/03/05 07:42:40;;;;;;;9.38;2.83;;;;;;;1.03;65.16;102858.22;4946093;28;20093;-76
2021/03/05 07:45:08;;;;;;;10.63;3.00;;;;;;;1.10;64.82;102872.72;4939927;28;20128;-76
2021/03/05 07:47:36;;;;;;;6.90;3.47;;;;;;;1.06;64.95;102872.78;4946709;28;20423;-77
2021/03/05 07:50:32;;;;;;;10.70;3.47;;;;;;;1.07;65.39;102877.94;4934935;28;20537;-78
2021/03/05 07:52:59;;;;;;;12.88;3.13;;;;;;;1.19;65.20;102893.16;4958254;28;20173;-77
2021/03/05 07:55:37;;;;;;;11.38;4.88;;;;;;;1.19;65.14;102893.16;4956110;28;20538;-76
2021/03/05 07:58:03;;;;;;;12.30;4.25;;;;;;;1.24;65.17;102902.56;4937546;28;20059;-74
2021/03/05 08:00:54;;;;;;;12.07;3.20;;;;;;;1.29;65.20;102898.13;4952528;28;20074;-75
2021/03/05 08:03:24;;;;;;;8.55;3.42;;;;;;;1.27;65.49;102898.16;4937937;28;20094;-74
2021/03/05 08:05:51;;;;;;;11.23;3.80;;;;;;;1.25;65.71;102889.59;4924417;28;20063;-74
2021/03/05 08:08:23;;;;;;;10.52;3.58;;;;;;;1.32;66.23;102896.34;4934458;28;20118;-74
2021/03/05 08:10:57;;;;;;;8.25;3.30;;;;;;;1.31;65.69;102889.47;4939238;28;20063;-74
2021/03/05 08:13:54;;;;;;;19.38;3.13;;;;;;;1.40;65.29;102896.16;4955830;28;20090;-75
2021/03/05 08:16:29;;;;;;;12.32;3.17;;;;;;;1.43;65.60;102900.41;4955030;28;20063;-74
2021/03/05 08:19:04;;;;;;;4.90;2.55;;;;;;;1.46;65.58;102895.16;4960092;28;20108;-74
2021/03/05 08:21:50;;;;;;;10.23;2.97;;;;;;;1.49;65.10;102901.13;4943223;28;20063;-73
2021/03/05 08:24:23;;;;;;;8.27;2.55;;;;;;;1.52;64.59;102892.44;4945159;28;20055;-74
2021/03/05 08:27:08;;;;;;;8.55;3.10;;;;;;;1.54;64.46;102894.06;4964193;28;20058;-74
2021/03/05 08:29:59;;;;;;;8.60;2.88;;;;;;;1.57;64.07;102906.09;4944650;28;20749;-74
2021/03/05 08:32:36;;;;;;;6.90;2.65;;;;;;;1.62;64.38;102908.56;4956533;28;20399;-74
2021/03/05 08:35:11;;;;;;;10.07;2.67;;;;;;;1.65;64.86;102911.94;4940555;28;20059;-74
2021/03/05 08:37:40;;;;;;;12.48;2.40;;;;;;;1.66;64.33;102917.97;4956780;28;20451;-73
2021/03/05 08:40:12;;;;;;;9.40;2.65;;;;;;;1.71;64.16;102926.47;4939000;28;20559;-73
2021/03/05 08:42:41;;;;;;;7.88;2.30;;;;;;;1.72;64.00;102923.81;4935523;28;20158;-74
2021/03/05 08:45:22;;;;;;;6.18;2.28;;;;;;;1.73;63.95;102912.59;4951201;28;20117;-74
2021/03/05 08:47:57;;;;;;;6.07;2.30;;;;;;;1.83;63.80;102920.16;4963769;28;20462;-75
2021/03/05 08:50:31;;;;;;;6.57;2.00;;;;;;;1.85;63.69;102920.94;4944938;28;20054;-74
2021/03/05 08:52:59;;;;;;;10.77;2.58;;;;;;;1.92;62.67;102927.66;4963499;28;20577;-76
2021/03/05 08:55:35;;;;;;;7.32;2.22;;;;;;;1.93;62.13;102926.78;4940478;28;20857;-74
2021/03/05 08:58:02;;;;;;;10.10;2.25;;;;;;;2.02;62.33;102925.69;4948791;28;20128;-74
2021/03/05 09:00:31;;;;;;;9.90;2.42;;;;;;;2.01;62.66;102924.84;4960695;28;20058;-74
2021/03/05 09:03:07;;;;;;;6.45;1.90;;;;;;;2.10;62.13;102934.97;4947784;28;20099;-74
2021/03/05 09:05:37;;;;;;;6.10;2.20;;;;;;;2.04;60.61;102926.50;4950836;28;20181;-74
2021/03/05 09:08:05;;;;;;;6.32;1.73;;;;;;;2.15;59.87;102934.84;4961409;28;20070;-75
2021/03/05 09:10:52;;;;;;;3.20;1.47;;;;;;;2.21;59.72;102939.00;4966968;28;20094;-75
2021/03/05 09:13:21;;;;;;;3.13;1.33;;;;;;;2.27;59.03;102944.03;4957749;28;20054;-75
2021/03/05 09:15:49;;;;;;;;;;;;;;;2.29;57.52;102939.66;4963017;28;20094;-75
2021/03/05 09:18:17;;;;;;;10.15;1.88;;;;;;;2.29;57.90;102930.13;4961969;28;19926;-74
2021/03/05 09:20:46;;;;;;;8.18;1.70;;;;;;;2.38;57.60;102936.81;4967074;28;20494;-75
2021/03/05 09:23:18;;;;;;;6.43;1.40;;;;;;;2.42;58.00;102940.19;4961076;28;20094;-74
2021/03/05 09:25:50;;;;;;;8.48;1.80;;;;;;;2.37;57.65;102924.75;4965505;28;20074;-73
2021/03/05 09:28:18;;;;;;;5.60;1.75;;;;;;;2.52;57.57;102941.63;4958835;28;20058;-74
2021/03/05 09:30:49;;;;;;;6.22;1.33;;;;;;;2.58;57.44;102944.88;4964744;28;20062;-75
2021/03/05 09:33:45;;;;;;;6.35;1.35;;;;;;;2.60;58.61;102926.72;4965958;28;20397;-74
2021/03/05 09:36:12;;;;;;;;;;;;;;;2.75;55.97;102947.03;4948672;28;20506;-74
2021/03/05 09:38:43;;;;;;;4.07;1.65;;;;;;;2.79;55.49;102959.91;4954883;28;20024;-73
2021/03/05 09:41:11;;;;;;;5.45;1.48;;;;;;;2.86;54.30;102948.44;4937361;28;20142;-75
2021/03/05 09:43:37;;;;;;;5.15;1.20;;;;;;;2.93;54.15;102950.81;4929260;28;20552;-74
2021/03/05 09:46:25;;;;;;;5.90;1.30;;;;;;;3.05;53.14;102959.16;4957047;28;20616;-74
2021/03/05 09:48:53;;;;;;;8.55;1.90;;;;;;;3.15;52.61;102950.19;4947491;28;20146;-74
2021/03/05 09:51:21;;;;;;;10.95;1.77;;;;;;;3.25;51.78;102956.78;4954871;28;20150;-73
2021/03/05 09:53:57;;;;;;;5.43;1.20;;;;;;;3.35;51.51;102955.63;4963388;28;20066;-75
2021/03/05 09:56:26;;;;;;;4.28;1.30;;;;;;;3.44;52.44;102954.50;4956797;28;20499;-74
2021/03/05 09:58:58;;;;;;;4.57;1.20;;;;;;;3.58;51.12;102953.22;4951702;28;20142;-73
2021/03/05 10:01:34;;;;;;;4.30;1.23;;;;;;;3.76;50.89;102973.38;4966905;28;20985;-73
2021/03/05 10:04:02;;;;;;;4.88;1.20;;;;;;;3.93;50.99;102965.06;4952829;28;20720;-74
2021/03/05 10:06:31;;;;;;;2.90;1.17;;;;;;;4.08;51.22;102956.75;4967093;28;20047;-74
2021/03/05 10:09:06;;;;;;;3.08;1.02;;;;;;;4.23;48.88;102978.75;4959865;28;20082;-74
2021/03/05 10:11:37;;;;;;;6.80;1.33;;;;;;;4.35;49.89;102973.16;4966442;28;20106;-74
2021/03/05 10:14:05;;;;;;;5.35;1.35;;;;;;;4.52;49.16;102976.91;4942292;28;20165;-74
2021/03/05 10:16:39;;;;;;;4.35;1.50;;;;;;;4.60;46.44;102974.03;4948587;28;20467;-74
2021/03/05 10:19:12;;;;;;;6.40;1.50;;;;;;;4.75;47.90;102970.88;4952121;28;20090;-74
2021/03/05 10:21:47;;;;;;;3.35;1.08;;;;;;;4.89;46.31;102985.97;4936031;29;20703;-74
2021/03/05 10:24:16;;;;;;;3.20;1.10;;;;;;;4.99;45.57;102970.88;4954610;28;20396;-74
2021/03/05 10:29:46;;;;;;;5.80;1.10;;;;;;;5.29;44.13;102980.13;4946559;28;20149;-74
2021/03/05 10:32:47;;;;;;;5.95;1.27;;;;;;;5.44;44.53;102985.66;4960170;28;20066;-74
2021/03/05 10:35:16;;;;;;;6.10;1.48;;;;;;;5.55;43.42;102986.91;4938865;28;20135;-75
2021/03/05 10:37:47;;;;;;;3.65;1.10;;;;;;;5.72;42.97;102978.44;4953448;28;20863;-74
2021/03/05 10:40:18;;;;;;;4.03;1.33;;;;;;;5.89;43.07;102987.31;4965738;28;20109;-75
2021/03/05 10:42:51;;;;;;;3.28;0.90;;;;;;;6.02;43.71;102985.06;4962124;28;20061;-76
2021/03/05 10:45:18;;;;;;;3.20;1.10;;;;;;;6.22;42.80;102992.09;4949434;28;20557;-73
2021/03/05 10:47:45;;;;;;;2.83;0.88;;;;;;;6.35;41.23;102988.06;4946632;28;20202;-74
2021/03/05 10:50:12;;;;;;;5.88;1.15;;;;;;;6.61;41.36;103002.56;4964056;28;20494;-73
2021/03/05 10:52:38;;;;;;;5.82;0.90;;;;;;;6.75;41.96;103004.56;4958381;28;20153;-75
2021/03/05 10:55:04;;;;;;;2.05;0.73;;;;;;;6.88;39.42;102997.00;4952245;28;20782;-75
2021/03/05 10:57:30;;;;;;;3.40;0.88;;;;;;;7.00;38.37;102995.59;4961834;28;20240;-74
2021/03/05 10:59:57;;;;;;;2.63;0.80;;;;;;;7.12;38.43;102982.84;4944587;28;20434;-74
2021/03/05 11:02:22;;;;;;;2.92;1.00;;;;;;;7.31;39.41;102997.66;4957629;28;20627;-74
2021/03/05 11:04:49;;;;;;;4.88;0.98;;;;;;;7.47;37.68;102995.19;4946161;28;20086;-73
2021/03/05 11:07:15;;;;;;;4.65;0.80;;;;;;;7.62;36.68;102999.66;4964882;28;20553;-74
2021/03/05 11:09:41;;;;;;;2.35;0.90;;;;;;;7.76;36.28;103006.00;4959213;28;20068;-74
2021/03/05 11:12:07;;;;;;;3.40;0.93;;;;;;;7.87;35.77;103001.94;4964109;28;20565;-74
2021/03/05 11:14:33;;;;;;;3.13;0.77;;;;;;;8.00;36.01;102998.72;4951584;28;20086;-74
2021/03/05 11:17:00;;;;;;;2.22;0.60;;;;;;;8.16;35.79;103004.88;4945536;28;20066;-73
2021/03/05 11:19:26;;;;;;;3.65;0.95;;;;;;;8.25;34.37;103003.56;4959285;28;20054;-74
2021/03/05 11:21:53;;;;;;;1.40;0.63;;;;;;;8.43;33.98;103004.44;4964573;28;20136;-74
2021/03/05 11:24:19;;;;;;;4.72;1.20;;;;;;;8.61;32.55;103011.31;4964938;28;20125;-74
2021/03/05 11:26:45;;;;;;;2.35;0.80;;;;;;;8.70;33.41;103009.97;4956155;28;20480;-75
2021/03/05 11:29:13;;;;;;;1.73;0.77;;;;;;;8.82;32.54;103018.97;4961226;28;20058;-74
2021/03/05 11:31:39;;;;;;;3.70;0.80;;;;;;;8.95;33.00;103022.63;4958066;28;20735;-75
2021/03/05 11:34:06;;;;;;;1.85;0.65;;;;;;;9.14;31.77;103025.09;4947283;28;20279;-75
2021/03/05 11:36:32;;;;;;;1.35;0.60;;;;;;;9.32;31.15;103022.41;4952858;28;20070;-75
2021/03/05 11:38:58;;;;;;;1.85;0.90;;;;;;;9.42;33.33;103018.34;4949345;28;20082;-75
2021/03/05 11:41:24;;;;;;;4.38;1.33;;;;;;;9.47;32.85;103024.19;4956164;28;20078;-74
2021/03/05 11:44:04;;;;;;;8.90;2.17;;;;;;;9.68;32.41;103024.75;4950392;28;20141;-73
2021/03/05 11:46:30;;;;;;;3.53;0.82;;;;;;;9.80;31.24;103018.84;4963886;28;20121;-74